createdAt,value
2023-05-14T00:00:58.642Z,9.89
2023-05-14T00:01:58.714Z,9.94
2023-05-14T00:02:58.794Z,9.99
2023-05-14T00:03:58.821Z,9.97
2023-05-14T00:04:58.604Z,9.99
2023-05-14T00:05:58.568Z,9.84
2023-05-14T00:06:58.560Z,9.74
2023-05-14T00:07:58.551Z,9.68
2023-05-14T00:08:58.536Z,9.68
2023-05-14T00:09:58.522Z,9.65
2023-05-14T00:10:58.507Z,9.56
2023-05-14T00:11:58.495Z,9.49
2023-05-14T00:12:58.481Z,9.42
2023-05-14T00:13:58.474Z,9.41
2023-05-14T00:14:58.458Z,9.45
2023-05-14T00:15:58.510Z,9.55
2023-05-14T00:16:58.428Z,9.59
2023-05-14T00:17:58.516Z,9.70
2023-05-14T00:18:58.454Z,9.70
2023-05-14T00:19:58.395Z,9.68
2023-05-14T00:20:58.482Z,9.70
2023-05-14T00:21:58.427Z,9.68
2023-05-14T00:22:58.384Z,9.70
2023-05-14T00:23:58.429Z,9.83
2023-05-14T00:24:58.388Z,9.97
2023-05-14T00:25:58.428Z,10.09
2023-05-14T00:26:58.404Z,10.12
2023-05-14T00:27:58.291Z,10.14
2023-05-14T00:28:58.278Z,10.17
2023-05-14T00:29:58.263Z,10.18
2023-05-14T00:30:58.280Z,10.23
2023-05-14T00:31:58.279Z,10.36
2023-05-14T00:32:58.309Z,10.47
2023-05-14T00:33:58.212Z,10.59
2023-05-14T00:34:58.199Z,10.62
2023-05-14T00:35:58.183Z,10.55
2023-05-14T00:36:58.170Z,10.51
2023-05-14T00:37:58.158Z,10.52
2023-05-14T00:38:58.146Z,10.48
2023-05-14T00:39:58.131Z,10.40
2023-05-14T00:40:58.146Z,10.45
2023-05-14T00:41:58.108Z,10.42
2023-05-14T00:42:58.101Z,10.47
2023-05-14T00:43:58.082Z,10.54
2023-05-14T00:44:58.071Z,10.58
2023-05-14T00:45:58.057Z,10.62
2023-05-14T00:46:58.062Z,10.66
2023-05-14T00:47:58.110Z,10.73
2023-05-14T00:48:58.021Z,10.78
2023-05-14T00:49:58.008Z,10.83
2023-05-14T00:50:58.001Z,10.84
2023-05-14T00:51:57.990Z,10.90
2023-05-14T00:52:57.972Z,10.91
2023-05-14T00:53:57.959Z,10.95
2023-05-14T00:54:57.949Z,10.95
2023-05-14T00:55:57.935Z,10.83
2023-05-14T00:56:57.922Z,10.73
2023-05-14T00:57:57.911Z,10.70
2023-05-14T00:58:57.897Z,10.75
2023-05-14T00:59:57.884Z,10.81
2023-05-14T01:00:57.909Z,10.88
2023-05-14T01:01:57.856Z,10.91
2023-05-14T01:02:57.950Z,10.93
2023-05-14T01:03:58.177Z,10.99
2023-05-14T01:04:57.820Z,11.05
2023-05-14T01:05:57.813Z,11.13
2023-05-14T01:06:57.794Z,11.10
2023-05-14T01:07:57.779Z,11.14
2023-05-14T01:08:57.774Z,11.16
2023-05-14T01:09:57.755Z,11.18
2023-05-14T01:10:57.743Z,11.18
2023-05-14T01:11:57.735Z,11.14
2023-05-14T01:12:57.720Z,11.08
2023-05-14T01:13:57.705Z,11.09
2023-05-14T01:14:57.696Z,11.21
2023-05-14T01:15:57.711Z,11.27
2023-05-14T01:16:57.714Z,11.29
2023-05-14T01:17:57.666Z,11.29
2023-05-14T01:18:57.725Z,11.33
2023-05-14T01:19:57.678Z,11.46
2023-05-14T01:20:57.611Z,11.52
2023-05-14T01:21:57.600Z,11.51
2023-05-14T01:22:57.582Z,11.43
2023-05-14T01:23:57.574Z,11.40
2023-05-14T01:24:57.559Z,11.36
2023-05-14T01:25:57.545Z,11.33
2023-05-14T01:26:57.548Z,11.33
2023-05-14T01:27:57.518Z,11.39
2023-05-14T01:28:57.503Z,11.42
2023-05-14T01:29:57.492Z,11.47
2023-05-14T01:30:57.477Z,11.43
2023-05-14T01:31:57.510Z,11.43
2023-05-14T01:32:57.480Z,11.46
2023-05-14T01:33:57.436Z,11.42
2023-05-14T01:34:57.424Z,11.47
2023-05-14T01:35:57.448Z,11.43
2023-05-14T01:36:57.404Z,11.35
2023-05-14T01:37:57.383Z,11.36
2023-05-14T01:38:57.369Z,11.35
2023-05-14T01:39:57.358Z,11.35
2023-05-14T01:40:57.352Z,11.32
2023-05-14T01:41:57.352Z,11.25
2023-05-14T01:42:57.366Z,11.18
2023-05-14T01:43:57.307Z,11.25
2023-05-14T01:44:57.294Z,11.32
2023-05-14T01:45:57.288Z,11.40
2023-05-14T01:46:57.257Z,11.46
2023-05-14T01:47:57.303Z,11.54
2023-05-14T01:48:57.235Z,11.55
2023-05-14T01:49:57.222Z,11.49
2023-05-14T01:50:57.232Z,11.37
2023-05-14T01:51:57.223Z,11.33
2023-05-14T01:52:57.203Z,11.29
2023-05-14T01:53:57.171Z,11.22
2023-05-14T01:54:57.156Z,11.13
2023-05-14T01:55:57.145Z,11.18
2023-05-14T01:56:57.138Z,11.28
2023-05-14T01:57:57.118Z,11.29
2023-05-14T01:58:57.098Z,11.24
2023-05-14T01:59:57.122Z,11.27
2023-05-14T02:00:57.073Z,11.29
2023-05-14T02:01:57.166Z,11.33
2023-05-14T02:02:57.089Z,11.33
2023-05-14T02:03:57.105Z,11.37
2023-05-14T02:04:57.021Z,11.42
2023-05-14T02:05:57.011Z,11.42
2023-05-14T02:06:56.996Z,11.44
2023-05-14T02:07:57.011Z,11.46
2023-05-14T02:08:56.976Z,11.37
2023-05-14T02:09:56.957Z,11.29
2023-05-14T02:10:56.942Z,11.27
2023-05-14T02:11:56.938Z,11.25
2023-05-14T02:12:56.918Z,11.27
2023-05-14T02:14:56.889Z,11.24
2023-05-14T02:15:56.913Z,11.28
2023-05-14T02:16:56.865Z,11.24
2023-05-14T02:17:56.889Z,11.21
2023-05-14T02:18:56.874Z,11.18
2023-05-14T02:19:56.831Z,11.21
2023-05-14T02:20:56.819Z,11.21
2023-05-14T02:21:56.803Z,11.27
2023-05-14T02:22:56.815Z,11.29
2023-05-14T02:23:56.804Z,11.32
2023-05-14T02:24:56.765Z,11.36
2023-05-14T02:25:56.760Z,11.29
2023-05-14T02:26:56.735Z,11.36
2023-05-14T02:27:56.718Z,11.33
2023-05-14T02:28:56.714Z,11.29
2023-05-14T02:29:56.701Z,11.35
2023-05-14T02:30:56.682Z,11.39
2023-05-14T02:31:56.998Z,11.40
2023-05-14T02:32:56.705Z,11.42
2023-05-14T02:33:56.643Z,11.40
2023-05-14T02:34:56.646Z,11.16
2023-05-14T02:35:56.623Z,10.95
2023-05-14T02:36:56.603Z,10.87
2023-05-14T02:37:56.601Z,10.87
2023-05-14T02:38:56.583Z,10.80
2023-05-14T02:39:56.612Z,10.73
2023-05-14T02:40:56.552Z,10.60
2023-05-14T02:41:56.537Z,10.66
2023-05-14T02:42:56.532Z,10.62
2023-05-14T02:43:56.511Z,10.67
2023-05-14T02:44:56.500Z,10.72
2023-05-14T02:45:56.488Z,10.80
2023-05-14T02:46:56.483Z,10.91
2023-05-14T02:47:56.554Z,10.96
2023-05-14T02:48:56.453Z,10.98
2023-05-14T02:49:56.432Z,11.02
2023-05-14T02:50:56.422Z,11.06
2023-05-14T02:51:56.405Z,11.08
2023-05-14T02:52:56.389Z,11.05
2023-05-14T02:53:56.374Z,10.91
2023-05-14T02:54:56.374Z,10.72
2023-05-14T02:55:56.381Z,10.55
2023-05-14T02:56:56.337Z,10.60
2023-05-14T02:57:56.327Z,10.67
2023-05-14T02:58:56.321Z,10.70
2023-05-14T03:00:56.312Z,10.66
2023-05-14T03:01:56.283Z,10.72
2023-05-14T03:02:56.380Z,10.77
2023-05-14T03:03:56.244Z,10.90
2023-05-14T03:04:56.232Z,10.98
2023-05-14T03:05:56.229Z,11.05
2023-05-14T03:06:56.204Z,11.06
2023-05-14T03:07:56.193Z,11.10
2023-05-14T03:08:56.177Z,11.14
2023-05-14T03:09:56.166Z,11.27
2023-05-14T03:10:56.152Z,11.16
2023-05-14T03:11:56.166Z,11.03
2023-05-14T03:12:56.150Z,11.05
2023-05-14T03:13:56.116Z,10.98
2023-05-14T03:14:56.102Z,10.67
2023-05-14T03:15:56.088Z,10.51
2023-05-14T03:16:56.099Z,10.55
2023-05-14T03:17:56.085Z,10.59
2023-05-14T03:18:56.128Z,10.62
2023-05-14T03:19:56.039Z,10.51
2023-05-14T03:20:56.018Z,10.52
2023-05-14T03:21:56.006Z,10.48
2023-05-14T03:22:55.995Z,10.47
2023-05-14T03:23:55.992Z,10.45
2023-05-14T03:24:55.968Z,10.48
2023-05-14T03:25:55.959Z,10.58
2023-05-14T03:26:55.934Z,10.62
2023-05-14T03:27:55.952Z,10.51
2023-05-14T03:28:55.930Z,10.55
2023-05-14T03:29:55.897Z,10.45
2023-05-14T03:30:55.906Z,10.40
2023-05-14T03:31:55.876Z,10.29
2023-05-14T03:32:55.917Z,10.17
2023-05-14T03:33:55.846Z,10.20
2023-05-14T03:34:55.830Z,10.14
2023-05-14T03:35:55.823Z,10.12
2023-05-14T03:36:55.807Z,10.23
2023-05-14T03:37:55.791Z,10.30
2023-05-14T03:38:55.775Z,10.29
2023-05-14T03:39:55.762Z,10.33
2023-05-14T03:40:55.755Z,10.33
2023-05-14T03:41:55.741Z,10.27
2023-05-14T03:42:55.728Z,10.25
2023-05-14T03:43:55.740Z,10.27
2023-05-14T03:44:55.709Z,10.23
2023-05-14T03:45:55.687Z,10.29
2023-05-14T03:46:55.672Z,10.22
2023-05-14T03:47:55.698Z,10.22
2023-05-14T03:48:55.683Z,10.26
2023-05-14T03:49:55.631Z,10.33
2023-05-14T03:50:55.621Z,10.32
2023-05-14T03:51:55.603Z,10.22
2023-05-14T03:52:55.590Z,10.18
2023-05-14T03:53:55.581Z,10.18
2023-05-14T03:54:55.571Z,10.20
2023-05-14T03:55:55.550Z,10.27
2023-05-14T03:56:55.540Z,10.34
2023-05-14T03:57:55.550Z,10.40
2023-05-14T03:58:55.517Z,10.44
2023-05-14T03:59:55.524Z,10.40
2023-05-14T04:00:55.484Z,10.48
2023-05-14T04:01:55.477Z,10.52
2023-05-14T04:02:55.501Z,10.51
2023-05-14T04:03:55.643Z,10.54
2023-05-14T04:04:55.509Z,10.62
2023-05-14T04:05:55.416Z,10.54
2023-05-14T04:06:55.405Z,10.40
2023-05-14T04:07:55.399Z,10.38
2023-05-14T04:08:55.399Z,10.45
2023-05-14T04:09:55.368Z,10.52
2023-05-14T04:10:55.356Z,10.60
2023-05-14T04:11:55.344Z,10.67
2023-05-14T04:12:55.330Z,10.62
2023-05-14T04:13:55.314Z,10.52
2023-05-14T04:14:55.303Z,10.54
2023-05-14T04:15:55.338Z,10.59
2023-05-14T04:16:55.279Z,10.67
2023-05-14T04:17:55.309Z,10.67
2023-05-14T04:18:55.310Z,10.72
2023-05-14T04:19:55.244Z,10.50
2023-05-14T04:20:55.222Z,10.54
2023-05-14T04:21:55.210Z,10.58
2023-05-14T04:22:55.201Z,10.58
2023-05-14T04:23:55.182Z,10.54
2023-05-14T04:24:55.173Z,10.51
2023-05-14T04:25:55.159Z,10.29
2023-05-14T04:26:55.142Z,10.22
2023-05-14T04:27:55.137Z,10.23
2023-05-14T04:28:55.114Z,10.27
2023-05-14T04:29:55.107Z,10.36
2023-05-14T04:30:55.089Z,10.40
2023-05-14T04:31:55.116Z,10.41
2023-05-14T04:32:55.123Z,10.52
2023-05-14T04:33:55.050Z,10.63
2023-05-14T04:34:55.033Z,10.72
2023-05-14T04:35:55.024Z,10.72
2023-05-14T04:36:55.012Z,10.60
2023-05-14T04:37:55.000Z,10.67
2023-05-14T04:38:54.978Z,10.72
2023-05-14T04:39:54.965Z,10.78
2023-05-14T04:40:54.959Z,10.91
2023-05-14T04:41:54.948Z,11.01
2023-05-14T04:42:54.939Z,11.06
2023-05-14T04:43:54.913Z,11.14
2023-05-14T04:44:54.897Z,11.18
2023-05-14T04:45:54.913Z,11.17
2023-05-14T04:46:54.870Z,11.25
2023-05-14T04:47:54.912Z,11.35
2023-05-14T04:48:54.851Z,11.40
2023-05-14T04:49:54.836Z,11.44
2023-05-14T04:50:54.834Z,11.54
2023-05-14T04:51:54.806Z,11.58
2023-05-14T04:52:54.791Z,11.67
2023-05-14T04:53:54.784Z,11.70
2023-05-14T04:54:54.766Z,11.76
2023-05-14T04:55:54.754Z,11.85
2023-05-14T04:56:54.741Z,11.86
2023-05-14T04:57:54.727Z,11.73
2023-05-14T04:58:54.717Z,11.73
2023-05-14T04:59:54.704Z,11.62
2023-05-14T05:00:54.721Z,11.61
2023-05-14T05:01:54.678Z,11.58
2023-05-14T05:02:54.694Z,11.58
2023-05-14T05:03:54.732Z,11.55
2023-05-14T05:04:54.639Z,11.57
2023-05-14T05:05:54.634Z,11.61
2023-05-14T05:06:54.618Z,11.69
2023-05-14T05:07:54.610Z,11.79
2023-05-14T05:08:54.585Z,11.60
2023-05-14T05:09:54.578Z,11.57
2023-05-14T05:10:54.563Z,11.39
2023-05-14T05:11:54.553Z,11.32
2023-05-14T05:12:54.568Z,11.17
2023-05-14T05:13:54.527Z,11.24
2023-05-14T05:14:54.514Z,11.18
2023-05-14T05:15:54.523Z,11.28
2023-05-14T05:16:54.502Z,11.33
2023-05-14T05:17:54.498Z,11.33
2023-05-14T05:18:54.558Z,11.33
2023-05-14T05:19:54.478Z,11.49
2023-05-14T05:20:54.437Z,11.58
2023-05-14T05:21:54.423Z,11.60
2023-05-14T05:22:54.413Z,11.67
2023-05-14T05:23:54.403Z,11.72
2023-05-14T05:24:54.417Z,11.64
2023-05-14T05:25:54.374Z,11.64
2023-05-14T05:26:54.375Z,11.65
2023-05-14T05:27:54.348Z,11.69
2023-05-14T05:28:54.340Z,11.65
2023-05-14T05:29:54.321Z,11.65
2023-05-14T05:30:54.343Z,11.67
2023-05-14T05:31:54.355Z,11.72
2023-05-14T05:32:54.339Z,11.65
2023-05-14T05:33:54.277Z,11.61
2023-05-14T05:34:54.257Z,11.55
2023-05-14T05:35:54.269Z,11.35
2023-05-14T05:36:54.227Z,11.42
2023-05-14T05:37:54.215Z,11.44
2023-05-14T05:38:54.204Z,11.44
2023-05-14T05:39:54.201Z,11.39
2023-05-14T05:40:54.179Z,11.42
2023-05-14T05:41:54.172Z,11.51
2023-05-14T05:42:54.172Z,11.58
2023-05-14T05:43:54.140Z,11.69
2023-05-14T05:44:54.124Z,11.79
2023-05-14T05:45:54.113Z,11.83
2023-05-14T05:46:54.170Z,11.80
2023-05-14T05:47:54.111Z,11.85
2023-05-14T05:48:54.071Z,12.01
2023-05-14T05:49:54.078Z,12.03
2023-05-14T05:50:54.045Z,11.88
2023-05-14T05:51:54.058Z,11.94
2023-05-14T05:52:54.016Z,11.97
2023-05-14T05:53:54.005Z,11.95
2023-05-14T05:54:53.993Z,11.83
2023-05-14T05:55:53.979Z,11.80
2023-05-14T05:56:53.989Z,11.83
2023-05-14T05:57:53.974Z,11.90
2023-05-14T05:58:53.956Z,11.65
2023-05-14T05:59:53.942Z,11.44
2023-05-14T06:00:53.922Z,11.35
2023-05-14T06:01:53.924Z,11.29
2023-05-14T06:02:53.993Z,11.44
2023-05-14T06:03:53.880Z,11.60
2023-05-14T06:04:53.903Z,11.69
2023-05-14T06:05:53.918Z,11.79
2023-05-14T06:06:53.854Z,11.98
2023-05-14T06:07:53.871Z,12.08
2023-05-14T06:08:53.812Z,12.03
2023-05-14T06:09:53.800Z,11.98
2023-05-14T06:10:53.785Z,11.80
2023-05-14T06:11:53.773Z,11.78
2023-05-14T06:12:53.760Z,11.86
2023-05-14T06:13:53.758Z,11.95
2023-05-14T06:14:53.736Z,12.01
2023-05-14T06:15:53.717Z,12.09
2023-05-14T06:16:53.792Z,12.27
2023-05-14T06:17:53.751Z,12.40
2023-05-14T06:18:53.737Z,12.52
2023-05-14T06:19:53.676Z,12.56
2023-05-14T06:20:53.671Z,12.46
2023-05-14T06:21:53.663Z,12.59
2023-05-14T06:22:53.639Z,12.74
2023-05-14T06:23:53.648Z,12.85
2023-05-14T06:24:53.626Z,13.00
2023-05-14T06:25:53.600Z,13.01
2023-05-14T06:26:53.581Z,13.12
2023-05-14T06:27:53.566Z,13.23
2023-05-14T06:28:53.558Z,13.15
2023-05-14T06:29:53.557Z,13.05
2023-05-14T06:30:53.529Z,13.08
2023-05-14T06:31:53.582Z,13.32
2023-05-14T06:32:53.563Z,13.56
2023-05-14T06:33:53.491Z,13.63
2023-05-14T06:34:53.475Z,13.70
2023-05-14T06:35:53.461Z,13.84
2023-05-14T06:36:53.457Z,13.94
2023-05-14T06:37:53.441Z,13.95
2023-05-14T06:38:53.423Z,14.01
2023-05-14T06:39:54.377Z,14.21
2023-05-14T06:40:53.396Z,14.37
2023-05-14T06:41:53.379Z,14.57
2023-05-14T06:42:53.368Z,14.75
2023-05-14T06:43:53.365Z,14.57
2023-05-14T06:44:53.344Z,14.60
2023-05-14T06:45:53.333Z,14.77
2023-05-14T06:46:53.325Z,15.16
2023-05-14T06:47:53.442Z,15.92
2023-05-14T06:48:53.348Z,16.05
2023-05-14T06:49:53.276Z,15.80
2023-05-14T06:50:53.268Z,15.35
2023-05-14T06:51:53.251Z,15.09
2023-05-14T06:52:53.240Z,14.65
2023-05-14T06:53:53.224Z,14.42
2023-05-14T06:54:53.214Z,13.94
2023-05-14T06:55:53.233Z,13.40
2023-05-14T06:56:53.189Z,13.10
2023-05-14T06:57:53.182Z,13.03
2023-05-14T06:58:53.169Z,13.30
2023-05-14T06:59:53.147Z,13.43
2023-05-14T07:00:53.134Z,13.78
2023-05-14T07:01:53.193Z,14.18
2023-05-14T07:02:53.136Z,14.52
2023-05-14T07:03:53.102Z,14.82
2023-05-14T07:04:53.083Z,15.24
2023-05-14T07:05:53.073Z,15.54
2023-05-14T07:06:53.060Z,15.80
2023-05-14T07:07:53.045Z,16.40
2023-05-14T07:08:53.030Z,16.45
2023-05-14T07:09:53.026Z,16.26
2023-05-14T07:10:53.012Z,16.20
2023-05-14T07:11:53.018Z,16.41
2023-05-14T07:12:52.979Z,16.37
2023-05-14T07:13:52.972Z,16.42
2023-05-14T07:14:52.958Z,16.91
2023-05-14T07:15:52.941Z,16.80
2023-05-14T07:16:52.962Z,17.08
2023-05-14T07:17:52.983Z,16.81
2023-05-14T07:18:53.006Z,16.84
2023-05-14T07:19:52.894Z,16.74
2023-05-14T07:20:52.892Z,16.81
2023-05-14T07:21:52.861Z,16.62
2023-05-14T07:22:52.855Z,16.56
2023-05-14T07:23:52.836Z,16.67
2023-05-14T07:24:52.822Z,16.77
2023-05-14T07:25:52.804Z,16.69
2023-05-14T07:26:52.800Z,16.66
2023-05-14T07:27:52.824Z,16.78
2023-05-14T07:28:52.784Z,16.26
2023-05-14T07:29:52.758Z,16.20
2023-05-14T07:30:52.793Z,15.94
2023-05-14T07:31:52.769Z,16.26
2023-05-14T07:32:52.764Z,16.72
2023-05-14T07:33:52.702Z,17.14
2023-05-14T07:34:52.692Z,16.94
2023-05-14T07:35:52.680Z,17.18
2023-05-14T07:36:52.672Z,17.33
2023-05-14T07:37:52.652Z,17.44
2023-05-14T07:38:52.636Z,17.59
2023-05-14T07:39:52.642Z,17.58
2023-05-14T07:40:52.617Z,17.56
2023-05-14T07:41:52.604Z,17.58
2023-05-14T07:42:52.589Z,17.77
2023-05-14T07:43:52.729Z,17.95
2023-05-14T07:44:52.563Z,18.07
2023-05-14T07:45:52.550Z,18.25
2023-05-14T07:46:52.553Z,18.28
2023-05-14T07:47:52.767Z,18.32
2023-05-14T07:48:52.512Z,18.81
2023-05-14T07:49:52.502Z,18.84
2023-05-14T07:50:52.486Z,18.81
2023-05-14T07:51:52.471Z,18.85
2023-05-14T07:52:52.459Z,19.09
2023-05-14T07:53:52.443Z,19.28
2023-05-14T07:54:52.486Z,19.28
2023-05-14T07:55:52.446Z,19.46
2023-05-14T07:56:52.412Z,19.70
2023-05-14T07:57:52.390Z,20.35
2023-05-14T07:58:52.382Z,21.09
2023-05-14T07:59:52.386Z,22.38
2023-05-14T08:00:52.361Z,23.37
2023-05-14T08:01:52.465Z,23.71
2023-05-14T08:02:52.662Z,23.22
2023-05-14T08:03:52.473Z,22.94
2023-05-14T08:04:52.393Z,22.38
2023-05-14T08:05:52.329Z,21.93
2023-05-14T08:06:52.293Z,21.64
2023-05-14T08:07:52.267Z,21.50
2023-05-14T08:08:52.256Z,21.83
2023-05-14T08:09:52.253Z,22.32
2023-05-14T08:10:52.270Z,22.76
2023-05-14T08:11:52.217Z,23.31
2023-05-14T08:12:52.222Z,23.72
2023-05-14T08:13:52.200Z,23.90
2023-05-14T08:14:52.187Z,24.03
2023-05-14T08:15:52.194Z,24.25
2023-05-14T08:16:52.198Z,23.96
2023-05-14T08:17:52.179Z,24.35
2023-05-14T08:18:52.178Z,24.46
2023-05-14T08:19:52.121Z,24.58
2023-05-14T08:20:52.120Z,24.16
2023-05-14T08:21:52.094Z,24.43
2023-05-14T08:22:52.089Z,24.30
2023-05-14T08:23:52.082Z,24.37
2023-05-14T08:24:52.066Z,24.06
2023-05-14T08:25:52.059Z,23.62
2023-05-14T08:26:52.044Z,23.79
2023-05-14T08:27:52.023Z,24.25
2023-05-14T08:28:52.014Z,24.24
2023-05-14T08:29:52.004Z,24.69
2023-05-14T08:30:52.021Z,25.05
2023-05-14T08:31:52.012Z,25.76
2023-05-14T08:32:51.991Z,26.25
2023-05-14T08:33:51.954Z,26.32
2023-05-14T08:34:52.132Z,25.42
2023-05-14T08:35:51.929Z,25.08
2023-05-14T08:36:51.918Z,25.64
2023-05-14T08:37:51.904Z,26.01
2023-05-14T08:38:51.895Z,25.95
2023-05-14T08:39:51.888Z,26.22
2023-05-14T08:40:51.869Z,26.56
2023-05-14T08:41:51.861Z,27.17
2023-05-14T08:42:51.873Z,27.29
2023-05-14T08:43:51.830Z,27.31
2023-05-14T08:44:51.822Z,27.29
2023-05-14T08:45:51.803Z,27.61
2023-05-14T08:46:51.794Z,27.54
2023-05-14T08:47:51.910Z,27.18
2023-05-14T08:48:51.777Z,27.22
2023-05-14T08:49:51.756Z,27.64
2023-05-14T08:50:51.760Z,27.95
2023-05-14T08:51:51.728Z,25.69
2023-05-14T08:52:51.725Z,24.84
2023-05-14T08:53:51.703Z,23.60
2023-05-14T08:54:51.692Z,23.01
2023-05-14T08:55:51.677Z,23.89
2023-05-14T08:56:51.985Z,24.49
2023-05-14T08:57:51.657Z,24.94
2023-05-14T08:58:51.641Z,25.24
2023-05-14T08:59:51.628Z,25.50
2023-05-14T09:00:51.614Z,26.36
2023-05-14T09:01:51.694Z,26.88
2023-05-14T09:02:51.806Z,27.58
2023-05-14T09:03:51.616Z,27.59
2023-05-14T09:04:51.573Z,27.68
2023-05-14T09:05:51.553Z,27.62
2023-05-14T09:06:51.542Z,27.55
2023-05-14T09:07:51.547Z,27.44
2023-05-14T09:08:51.518Z,27.86
2023-05-14T09:09:51.505Z,28.43
2023-05-14T09:10:51.517Z,28.86
2023-05-14T09:11:51.488Z,28.70
2023-05-14T09:12:51.470Z,26.50
2023-05-14T09:13:51.457Z,26.69
2023-05-14T09:14:51.449Z,27.04
2023-05-14T09:15:51.502Z,27.37
2023-05-14T09:16:51.528Z,27.84
2023-05-14T09:17:51.509Z,28.40
2023-05-14T09:18:51.445Z,28.31
2023-05-14T09:19:51.469Z,27.10
2023-05-14T09:20:51.379Z,26.62
2023-05-14T09:21:51.369Z,27.10
2023-05-14T09:22:51.349Z,27.59
2023-05-14T09:23:51.336Z,28.26
2023-05-14T09:24:51.325Z,28.29
2023-05-14T09:25:51.312Z,28.36
2023-05-14T09:26:51.299Z,27.91
2023-05-14T09:27:51.300Z,27.37
2023-05-14T09:28:51.276Z,27.54
2023-05-14T09:29:51.261Z,27.64
2023-05-14T09:30:51.263Z,27.78
2023-05-14T09:31:51.264Z,27.84
2023-05-14T09:32:51.246Z,27.40
2023-05-14T09:33:51.217Z,27.36
2023-05-14T09:34:51.203Z,27.92
2023-05-14T09:35:51.215Z,28.14
2023-05-14T09:36:51.182Z,28.51
2023-05-14T09:37:51.182Z,28.70
2023-05-14T09:38:51.164Z,28.74
2023-05-14T09:39:51.162Z,28.61
2023-05-14T09:40:51.130Z,28.24
2023-05-14T09:41:51.118Z,27.81
2023-05-14T09:42:51.112Z,27.87
2023-05-14T09:43:51.106Z,28.29
2023-05-14T09:44:51.083Z,28.68
2023-05-14T09:45:51.080Z,29.10
2023-05-14T09:46:51.104Z,28.18
2023-05-14T09:47:51.212Z,28.30
2023-05-14T09:48:51.038Z,28.17
2023-05-14T09:49:51.021Z,28.55
2023-05-14T09:50:51.010Z,28.46
2023-05-14T09:51:51.047Z,28.76
2023-05-14T09:52:50.988Z,29.25
2023-05-14T09:53:50.976Z,29.41
2023-05-14T09:54:50.963Z,29.52
2023-05-14T09:55:50.948Z,29.70
2023-05-14T09:56:50.967Z,29.74
2023-05-14T09:57:50.928Z,30.22
2023-05-14T09:58:50.912Z,30.98
2023-05-14T09:59:50.905Z,30.83
2023-05-14T10:00:50.955Z,29.59
2023-05-14T10:01:50.883Z,29.33
2023-05-14T10:02:50.869Z,29.62
2023-05-14T10:03:50.856Z,29.15
2023-05-14T10:04:50.957Z,28.89
2023-05-14T10:05:50.830Z,28.64
2023-05-14T10:06:50.818Z,28.54
2023-05-14T10:07:50.838Z,28.13
2023-05-14T10:08:50.790Z,27.91
2023-05-14T10:10:50.768Z,28.17
2023-05-14T10:11:50.758Z,28.39
2023-05-14T10:12:50.749Z,28.39
2023-05-14T10:13:50.736Z,28.26
2023-05-14T10:14:50.719Z,28.02
2023-05-14T10:15:50.713Z,27.71
2023-05-14T10:16:50.899Z,27.12
2023-05-14T10:17:50.717Z,26.88
2023-05-14T10:18:50.753Z,26.74
2023-05-14T10:19:50.664Z,26.38
2023-05-14T10:20:50.653Z,26.12
2023-05-14T10:21:50.636Z,26.05
2023-05-14T10:22:50.626Z,26.10
2023-05-14T10:23:50.631Z,26.25
2023-05-14T10:24:50.597Z,27.03
2023-05-14T10:25:50.590Z,26.72
2023-05-14T10:26:50.573Z,27.17
2023-05-14T10:27:50.571Z,27.02
2023-05-14T10:28:50.555Z,26.80
2023-05-14T10:29:50.540Z,27.02
2023-05-14T10:30:50.571Z,27.32
2023-05-14T10:31:50.536Z,27.64
2023-05-14T10:32:50.569Z,27.81
2023-05-14T10:33:50.560Z,28.26
2023-05-14T10:34:50.473Z,28.37
2023-05-14T10:35:50.461Z,28.67
2023-05-14T10:36:50.448Z,28.78
2023-05-14T10:37:50.438Z,28.83
2023-05-14T10:38:50.423Z,28.77
2023-05-14T10:39:50.435Z,28.43
2023-05-14T10:40:53.568Z,28.01
2023-05-14T10:41:50.386Z,27.29
2023-05-14T10:42:50.376Z,26.92
2023-05-14T10:43:50.364Z,26.74
2023-05-14T10:44:50.348Z,26.17
2023-05-14T10:45:50.340Z,26.09
2023-05-14T10:46:50.349Z,26.01
2023-05-14T10:47:50.335Z,26.02
2023-05-14T10:48:50.313Z,26.25
2023-05-14T10:49:50.289Z,25.97
2023-05-14T10:50:50.326Z,25.72
2023-05-14T10:51:50.278Z,25.58
2023-05-14T10:52:50.249Z,25.51
2023-05-14T10:53:50.237Z,26.01
2023-05-14T10:54:50.225Z,27.06
2023-05-14T10:55:50.242Z,27.87
2023-05-14T10:56:50.212Z,28.62
2023-05-14T10:57:50.191Z,28.46
2023-05-14T10:58:50.190Z,28.62
2023-05-14T10:59:50.168Z,28.40
2023-05-14T11:00:50.152Z,28.46
2023-05-14T11:01:50.167Z,28.43
2023-05-14T11:02:50.174Z,28.73
2023-05-14T11:03:50.180Z,28.99
2023-05-14T11:04:50.107Z,28.76
2023-05-14T11:05:50.097Z,28.49
2023-05-14T11:06:50.081Z,28.13
2023-05-14T11:07:50.097Z,27.46
2023-05-14T11:08:50.066Z,26.84
2023-05-14T11:09:50.046Z,26.06
2023-05-14T11:10:50.034Z,25.46
2023-05-14T11:11:50.049Z,24.98
2023-05-14T11:12:50.009Z,24.77
2023-05-14T11:13:50.002Z,24.60
2023-05-14T11:14:49.981Z,24.39
2023-05-14T11:15:49.971Z,24.09
2023-05-14T11:16:50.038Z,24.02
2023-05-14T11:17:49.973Z,24.02
2023-05-14T11:18:49.966Z,23.99
2023-05-14T11:19:51.230Z,24.09
2023-05-14T11:20:49.906Z,24.21
2023-05-14T11:21:49.918Z,24.30
2023-05-14T11:22:49.883Z,23.96
2023-05-14T11:23:49.871Z,23.97
2023-05-14T11:24:49.864Z,24.03
2023-05-14T11:25:49.886Z,24.06
2023-05-14T11:26:49.834Z,24.10
2023-05-14T11:27:49.855Z,24.39
2023-05-14T11:28:49.806Z,24.55
2023-05-14T11:29:49.798Z,24.71
2023-05-14T11:30:49.785Z,24.67
2023-05-14T11:31:49.843Z,25.09
2023-05-14T11:32:49.775Z,25.73
2023-05-14T11:33:49.747Z,26.32
2023-05-14T11:34:49.735Z,26.79
2023-05-14T11:35:49.731Z,27.34
2023-05-14T11:36:49.711Z,27.91
2023-05-14T11:37:49.704Z,28.74
2023-05-14T11:38:49.694Z,29.40
2023-05-14T11:39:49.682Z,29.60
2023-05-14T11:40:49.664Z,30.24
2023-05-14T11:41:49.647Z,30.56
2023-05-14T11:42:49.633Z,30.63
2023-05-14T11:43:49.653Z,30.90
2023-05-14T11:44:49.615Z,31.29
2023-05-14T11:45:49.620Z,31.84
2023-05-14T11:46:49.582Z,31.62
2023-05-14T11:47:49.639Z,31.25
2023-05-14T11:48:49.584Z,31.19
2023-05-14T11:49:49.564Z,31.44
2023-05-14T11:50:49.538Z,30.94
2023-05-14T11:51:49.544Z,30.71
2023-05-14T11:52:49.515Z,30.63
2023-05-14T11:53:49.526Z,31.19
2023-05-14T11:54:49.498Z,31.03
2023-05-14T11:55:49.478Z,31.26
2023-05-14T11:56:49.464Z,30.96
2023-05-14T11:57:49.453Z,31.05
2023-05-14T11:58:49.449Z,31.56
2023-05-14T11:59:49.452Z,31.91
2023-05-14T12:00:49.416Z,32.00
2023-05-14T12:01:50.751Z,32.24
2023-05-14T12:02:49.492Z,31.91
2023-05-14T12:03:49.485Z,31.94
2023-05-14T12:04:49.450Z,31.87
2023-05-14T12:05:49.355Z,31.81
2023-05-14T12:06:49.342Z,32.18
2023-05-14T12:07:49.330Z,32.46
2023-05-14T12:08:49.322Z,31.41
2023-05-14T12:09:49.422Z,30.35
2023-05-14T12:10:49.296Z,29.66
2023-05-14T12:11:49.282Z,28.51
2023-05-14T12:12:49.271Z,27.78
2023-05-14T12:13:49.261Z,28.23
2023-05-14T12:14:49.251Z,28.71
2023-05-14T12:15:49.315Z,29.03
2023-05-14T12:16:49.223Z,29.50
2023-05-14T12:17:49.234Z,30.31
2023-05-14T12:18:49.241Z,30.81
2023-05-14T12:19:49.202Z,31.32
2023-05-14T12:20:49.179Z,31.85
2023-05-14T12:21:49.163Z,31.61
2023-05-14T12:22:49.158Z,31.41
2023-05-14T12:23:49.137Z,31.17
2023-05-14T12:24:49.126Z,30.29
2023-05-14T12:25:49.111Z,29.27
2023-05-14T12:26:49.103Z,29.82
2023-05-14T12:27:49.092Z,30.00
2023-05-14T12:28:49.109Z,30.56
2023-05-14T12:29:49.067Z,30.93
2023-05-14T12:30:49.055Z,31.34
2023-05-14T12:31:49.186Z,31.56
2023-05-14T12:32:49.204Z,30.76
2023-05-14T12:33:49.018Z,30.94
2023-05-14T12:34:49.008Z,31.36
2023-05-14T12:35:48.995Z,31.57
2023-05-14T12:36:48.983Z,31.95
2023-05-14T12:37:48.972Z,32.25
2023-05-14T12:38:48.966Z,32.46
2023-05-14T12:39:48.946Z,32.62
2023-05-14T12:40:48.939Z,32.94
2023-05-14T12:41:48.934Z,32.63
2023-05-14T12:42:48.919Z,32.21
2023-05-14T12:43:48.912Z,31.68
2023-05-14T12:44:48.885Z,31.68
2023-05-14T12:45:48.883Z,31.54
2023-05-14T12:46:48.951Z,31.48
2023-05-14T12:47:48.913Z,31.58
2023-05-14T12:48:51.127Z,31.35
2023-05-14T12:49:48.830Z,31.88
2023-05-14T12:50:48.821Z,32.10
2023-05-14T12:51:50.116Z,31.95
2023-05-14T12:52:48.811Z,31.09
2023-05-14T12:53:48.785Z,30.16
2023-05-14T12:54:48.765Z,29.48
2023-05-14T12:55:48.756Z,29.26
2023-05-14T12:56:48.749Z,29.89